createdAt,value
2022-08-28T00:03:57.228Z,100747.45
2022-08-28T00:09:02.794Z,100746.53
2022-08-28T00:14:10.799Z,100750.64
2022-08-28T00:19:18.843Z,100753.33
2022-08-28T00:24:24.605Z,100756.25
2022-08-28T00:29:30.373Z,100754.00
2022-08-28T00:34:36.252Z,100750.70
2022-08-28T00:39:41.806Z,100754.59
2022-08-28T00:44:47.481Z,100750.78
2022-08-28T00:49:56.326Z,100751.44
2022-08-28T00:55:08.711Z,100747.87
2022-08-28T01:00:17.458Z,100742.50
2022-08-28T01:05:24.077Z,100748.80
2022-08-28T01:10:33.023Z,100746.23
2022-08-28T01:15:41.767Z,100746.53
2022-08-28T01:20:53.577Z,100752.53
2022-08-28T01:26:00.446Z,100751.67
2022-08-28T01:31:07.163Z,100748.09
2022-08-28T01:36:13.868Z,100757.42
2022-08-28T01:41:19.816Z,100759.09
2022-08-28T01:46:25.361Z,100757.53
2022-08-28T01:51:35.071Z,100757.58
2022-08-28T01:56:38.632Z,100759.95
2022-08-28T02:01:45.245Z,100764.42
2022-08-28T02:06:51.022Z,100769.31
2022-08-28T02:11:57.520Z,100763.98
2022-08-28T02:17:04.410Z,100763.33
2022-08-28T02:22:09.879Z,100757.07
2022-08-28T02:27:15.439Z,100759.95
2022-08-28T02:32:21.098Z,100754.50
2022-08-28T02:37:26.662Z,100752.95
2022-08-28T02:42:32.139Z,100742.73
2022-08-28T02:47:37.935Z,100740.16
2022-08-28T02:52:44.279Z,100745.80
2022-08-28T02:57:50.474Z,100743.77
2022-08-28T03:02:56.239Z,100735.97
2022-08-28T03:08:01.893Z,100738.53
2022-08-28T03:13:07.524Z,100742.52
2022-08-28T03:18:15.158Z,100750.39
2022-08-28T03:23:27.168Z,100751.34
2022-08-28T03:28:35.809Z,100748.81
2022-08-28T03:33:43.015Z,100745.30
2022-08-28T03:38:49.721Z,100748.27
2022-08-28T03:43:55.285Z,100749.48
2022-08-28T03:49:02.721Z,100756.69
2022-08-28T03:54:08.280Z,100758.95
2022-08-28T03:59:13.832Z,100764.03
2022-08-28T04:04:19.452Z,100763.44
2022-08-28T04:09:24.951Z,100766.20
2022-08-28T04:14:30.518Z,100767.96
2022-08-28T04:19:36.422Z,100773.42
2022-08-28T04:24:44.100Z,100774.21
2022-08-28T04:29:50.176Z,100779.56
2022-08-28T04:34:55.748Z,100787.00
2022-08-28T04:40:01.339Z,100786.45
2022-08-28T04:45:07.838Z,100791.62
2022-08-28T04:50:13.669Z,100793.86
2022-08-28T04:55:27.847Z,100795.81
2022-08-28T05:00:26.840Z,100792.79
2022-08-28T05:05:32.407Z,100795.20
2022-08-28T05:10:38.480Z,100798.09
2022-08-28T05:15:46.721Z,100795.58
2022-08-28T05:20:52.890Z,100792.98
2022-08-28T05:25:58.661Z,100796.27
2022-08-28T05:31:12.335Z,100803.56
2022-08-28T05:36:19.787Z,100807.55
2022-08-28T05:41:29.963Z,100816.07
2022-08-28T05:46:37.650Z,100823.70
2022-08-28T05:51:44.083Z,100825.17
2022-08-28T05:56:49.831Z,100831.61
2022-08-28T06:01:55.416Z,100827.88
2022-08-28T06:07:01.119Z,100836.48
2022-08-28T06:12:06.971Z,100835.67
2022-08-28T06:17:13.253Z,100841.70
2022-08-28T06:22:19.153Z,100843.02
2022-08-28T06:27:24.794Z,100848.53
2022-08-28T06:32:30.457Z,100850.09
2022-08-28T06:37:36.079Z,100857.09
2022-08-28T06:42:41.595Z,100855.38
2022-08-28T06:47:49.353Z,100857.72
2022-08-28T06:52:57.119Z,100865.52
2022-08-28T06:58:03.044Z,100869.97
2022-08-28T07:03:08.618Z,100873.48
2022-08-28T07:08:14.417Z,100869.23
2022-08-28T07:13:20.706Z,100876.04
2022-08-28T07:18:26.368Z,100868.89
2022-08-28T07:23:34.364Z,100876.33
2022-08-28T07:28:40.478Z,100881.83
2022-08-28T07:33:46.343Z,100882.41
2022-08-28T07:38:54.063Z,100882.33
2022-08-28T07:44:18.668Z,100892.27
2022-08-28T07:49:25.695Z,100894.98
2022-08-28T07:54:31.292Z,100901.92
2022-08-28T07:59:38.236Z,100903.00
2022-08-28T08:04:45.033Z,100907.85
2022-08-28T08:09:50.613Z,100909.34
2022-08-28T08:14:56.475Z,100919.43
2022-08-28T08:20:02.102Z,100920.89
2022-08-28T08:25:08.513Z,100917.66
2022-08-28T08:30:14.284Z,100930.95
2022-08-28T08:35:19.966Z,100931.66
2022-08-28T08:40:25.595Z,100934.63
2022-08-28T08:45:32.862Z,100935.77
2022-08-28T08:50:38.981Z,100937.47
2022-08-28T08:55:53.919Z,100942.70
2022-08-28T09:01:36.281Z,100949.18
2022-08-28T09:07:00.403Z,100948.00
2022-08-28T09:12:09.502Z,100950.53
2022-08-28T09:17:18.154Z,100945.93
2022-08-28T09:22:23.972Z,100951.09
2022-08-28T09:27:33.423Z,100958.11
2022-08-28T09:32:44.361Z,100958.66
2022-08-28T09:37:50.145Z,100950.91
2022-08-28T09:43:22.375Z,100948.03
2022-08-28T09:48:40.043Z,100947.80
2022-08-28T09:53:57.800Z,100950.58
2022-08-28T09:59:12.556Z,100949.77
2022-08-28T10:04:44.664Z,100948.17
2022-08-28T10:10:06.456Z,100957.05
2022-08-28T10:15:30.859Z,100955.03
2022-08-28T10:20:51.968Z,100957.13
2022-08-28T10:26:18.789Z,100954.09
2022-08-28T10:31:36.536Z,100960.72
2022-08-28T10:36:45.482Z,100962.77
2022-08-28T10:41:57.535Z,100969.94
2022-08-28T10:47:05.425Z,100968.94
2022-08-28T10:52:19.890Z,100965.55
2022-08-28T10:57:29.556Z,100973.02
2022-08-28T11:02:36.913Z,100973.25
2022-08-28T11:07:45.596Z,100964.40
2022-08-28T11:12:53.546Z,100963.16
2022-08-28T11:18:18.023Z,100963.48
2022-08-28T11:23:29.419Z,100962.97
2022-08-28T11:28:44.812Z,100957.97
2022-08-28T11:33:53.074Z,100956.39
2022-08-28T11:39:01.877Z,100962.31
2022-08-28T11:44:13.600Z,100963.29
2022-08-28T11:49:36.973Z,100962.14
2022-08-28T11:55:17.194Z,100960.34
2022-08-28T12:00:31.526Z,100962.58
2022-08-28T12:05:44.313Z,100971.46
2022-08-28T12:10:55.753Z,100973.15
2022-08-28T12:16:07.338Z,100969.22
2022-08-28T12:21:21.941Z,100976.23
2022-08-28T12:26:35.294Z,100970.43
2022-08-28T12:32:04.298Z,100968.38
2022-08-28T12:37:28.095Z,100971.06
2022-08-28T12:42:36.657Z,100976.88
2022-08-28T12:47:44.857Z,100961.19
2022-08-28T12:52:53.057Z,100963.22
2022-08-28T12:57:58.955Z,100964.66
2022-08-28T13:03:06.621Z,100966.04
2022-08-28T13:08:13.633Z,100968.25
2022-08-28T13:13:40.231Z,100963.16
2022-08-28T13:18:55.430Z,100969.14
2022-08-28T13:24:01.564Z,100974.98
2022-08-28T13:29:10.326Z,100970.75
2022-08-28T13:34:27.982Z,100970.13
2022-08-28T13:39:35.341Z,100969.72
2022-08-28T13:44:49.471Z,100961.45
2022-08-28T13:49:55.023Z,100965.80
2022-08-28T13:55:01.088Z,100963.03
2022-08-28T14:00:07.961Z,100956.89
2022-08-28T14:05:13.824Z,100962.73
2022-08-28T14:10:19.534Z,100967.66
2022-08-28T14:15:25.202Z,100970.44
2022-08-28T14:20:31.172Z,100973.23
2022-08-28T14:25:39.304Z,100975.05
2022-08-28T14:30:47.330Z,100975.05
2022-08-28T14:35:53.089Z,100974.43
2022-08-28T14:40:58.791Z,100976.14
2022-08-28T14:46:08.349Z,100978.23
2022-08-28T14:51:11.935Z,100977.56
2022-08-28T14:56:17.495Z,100974.43
2022-08-28T15:01:39.757Z,100975.80
2022-08-28T15:06:37.017Z,100967.08
2022-08-28T15:11:43.818Z,100979.77
2022-08-28T15:16:50.515Z,100977.90
2022-08-28T15:21:57.470Z,100984.09
2022-08-28T15:27:03.665Z,100975.38
2022-08-28T15:32:09.150Z,100985.63
2022-08-28T15:37:14.821Z,100984.58
2022-08-28T15:42:20.375Z,100984.41
2022-08-28T15:47:26.349Z,100985.94
2022-08-28T15:52:32.430Z,100985.80
2022-08-28T15:57:38.556Z,100988.54
2022-08-28T16:02:46.949Z,100990.05
2022-08-28T16:07:52.855Z,100996.75
2022-08-28T16:12:58.683Z,101000.30
2022-08-28T16:18:05.962Z,101008.85
2022-08-28T16:23:13.525Z,101009.14
2022-08-28T16:28:19.475Z,101010.42
2022-08-28T16:33:27.130Z,101013.09
2022-08-28T16:38:32.749Z,101017.78
2022-08-28T16:43:38.713Z,101024.75
2022-08-28T16:48:45.198Z,101018.25
2022-08-28T16:53:50.773Z,101023.73
2022-08-28T16:58:58.588Z,101027.16
2022-08-28T17:04:05.510Z,101034.80
2022-08-28T17:09:11.564Z,101029.34
2022-08-28T17:14:18.459Z,101033.78
2022-08-28T17:19:24.947Z,101048.51
2022-08-28T17:24:31.227Z,101046.03
2022-08-28T17:29:39.246Z,101049.38
2022-08-28T17:34:44.924Z,101051.92
2022-08-28T17:39:50.586Z,101054.19
2022-08-28T17:44:56.151Z,101057.23
2022-08-28T17:50:02.804Z,101063.45
2022-08-28T17:55:10.042Z,101062.28
2022-08-28T18:00:17.163Z,101073.19
2022-08-28T18:05:23.226Z,101080.63
2022-08-28T18:10:31.448Z,101091.73
2022-08-28T18:15:37.391Z,101089.69
2022-08-28T18:20:44.107Z,101102.30
2022-08-28T18:25:51.306Z,101111.55
2022-08-28T18:30:57.032Z,101103.49
2022-08-28T18:36:02.778Z,101110.95
2022-08-28T18:41:09.017Z,101108.73
2022-08-28T18:46:14.737Z,101108.50
2022-08-28T18:51:24.569Z,101108.73
2022-08-28T18:56:32.526Z,101106.98
2022-08-28T19:01:39.796Z,101110.75
2022-08-28T19:06:46.394Z,101109.46
2022-08-28T19:11:52.551Z,101103.77
2022-08-28T19:16:58.522Z,101106.88
2022-08-28T19:22:04.091Z,101108.33
2022-08-28T19:27:10.745Z,101108.68
2022-08-28T19:32:16.243Z,101110.20
2022-08-28T19:37:21.807Z,101120.19
2022-08-28T19:42:28.574Z,101116.75
2022-08-28T19:47:35.653Z,101120.52
2022-08-28T19:52:43.113Z,101128.89
2022-08-28T19:57:49.409Z,101125.11
2022-08-28T20:02:58.058Z,101137.65
2022-08-28T20:08:04.284Z,101135.78
2022-08-28T20:13:10.061Z,101136.76
2022-08-28T20:18:16.359Z,101133.22
2022-08-28T20:23:22.117Z,101138.83
2022-08-28T20:28:27.563Z,101142.23
2022-08-28T20:33:33.437Z,101139.59
2022-08-28T20:38:39.902Z,101143.00
2022-08-28T20:43:46.751Z,101136.16
2022-08-28T20:48:52.200Z,101138.16
2022-08-28T20:53:57.769Z,101133.99
2022-08-28T20:59:03.246Z,101131.56
2022-08-28T21:04:09.196Z,101132.33
2022-08-28T21:09:15.857Z,101133.24
2022-08-28T21:14:21.563Z,101134.63
2022-08-28T21:19:29.247Z,101130.21
2022-08-28T21:24:34.453Z,101131.75
2022-08-28T21:29:39.997Z,101136.95
2022-08-28T21:34:45.561Z,101136.76
2022-08-28T21:39:51.130Z,101135.42
2022-08-28T21:44:56.734Z,101135.92
2022-08-28T21:50:02.363Z,101134.12
2022-08-28T21:55:11.550Z,101137.09
2022-08-28T22:00:22.970Z,101147.19
2022-08-28T22:05:28.892Z,101144.48
2022-08-28T22:10:38.631Z,101143.74
2022-08-28T22:15:44.724Z,101146.45
2022-08-28T22:21:08.614Z,101146.95
2022-08-28T22:26:17.589Z,101154.09
2022-08-28T22:31:23.803Z,101151.27
2022-08-28T22:36:29.518Z,101148.19
2022-08-28T22:41:36.826Z,101144.53
2022-08-28T22:46:42.290Z,101146.88
2022-08-28T22:51:48.262Z,101148.11
2022-08-28T22:56:53.725Z,101153.17
2022-08-28T23:01:59.907Z,101164.12
2022-08-28T23:07:06.280Z,101169.28
2022-08-28T23:12:11.754Z,101169.91
2022-08-28T23:17:18.723Z,101167.94
2022-08-28T23:22:24.811Z,101160.31
2022-08-28T23:27:38.216Z,101150.34
2022-08-28T23:32:38.404Z,101151.72
2022-08-28T23:37:48.916Z,101148.27
2022-08-28T23:42:54.555Z,101143.59
2022-08-28T23:48:00.930Z,101142.85
2022-08-28T23:53:06.598Z,101141.98
2022-08-28T23:58:13.756Z,101145.19
